Time;durP1;ratioP1;P1;durP2;ratioP2;P2;SDS_P1;SDS_P2;PMS_P1;PMS_P2;Temp;Humidity;BMP_temperature;BMP_pressure;BME280_temperature;BME280_humidity;BME280_pressure;Samples;Min_cycle;Max_cycle;Signal;HPM_P1;HPM_P2
2022/03/16 00:01:40;;;;;;;87.10;42.33;;;;;;;;;;5049459;28;20429;-65
2022/03/16 00:04:07;;;;;;;90.77;40.97;;;;;;;;;;5050294;28;20438;-65
2022/03/16 00:06:34;;;;;;;100.80;41.70;;;;;;;;;;5050455;28;20770;-64
2022/03/16 00:09:00;;;;;;;133.60;43.67;;;;;;;;;;5030443;28;20464;-65
2022/03/16 00:11:27;;;;;;;113.23;43.83;;;;;;;;;;5030033;28;20474;-64
2022/03/16 00:13:54;;;;;;;110.93;43.20;;;;;;;;;;5030063;28;20466;-64
2022/03/16 00:16:21;;;;;;;120.90;47.30;;;;;;;;;;5029451;28;20441;-64
2022/03/16 00:18:47;;;;;;;116.20;47.27;;;;;;;;;;5030027;28;20496;-65
2022/03/16 00:21:14;;;;;;;108.27;45.83;;;;;;;;;;5029793;28;20797;-65
2022/03/16 00:23:41;;;;;;;110.03;47.10;;;;;;;;;;5044457;28;20901;-65
2022/03/16 00:26:08;;;;;;;116.63;44.70;;;;;;;;;;5049886;28;20432;-65
2022/03/16 00:28:35;;;;;;;102.43;45.03;;;;;;;;;;5048452;28;20525;-64
2022/03/16 00:31:02;;;;;;;111.17;46.17;;;;;;;;;;5048160;28;20544;-65
2022/03/16 00:33:29;;;;;;;114.30;46.23;;;;;;;;;;5049471;28;20455;-65
2022/03/16 00:35:58;;;;;;;116.07;44.80;;;;;;;;;;5049579;28;20996;-65
2022/03/16 00:38:24;;;;;;;101.53;43.77;;;;;;;;;;5037181;28;20457;-65
2022/03/16 00:40:51;;;;;;;104.80;44.40;;;;;;;;;;5029482;28;20961;-65
2022/03/16 00:43:18;;;;;;;96.37;43.70;;;;;;;;;;5029272;28;20753;-64
2022/03/16 00:45:44;;;;;;;106.33;45.77;;;;;;;;;;5029721;28;20434;-65
2022/03/16 00:48:13;;;;;;;100.17;45.07;;;;;;;;;;5029279;28;20441;-65
2022/03/16 00:50:43;;;;;;;108.93;42.20;;;;;;;;;;5027824;28;20505;-65
2022/03/16 00:53:10;;;;;;;104.77;42.70;;;;;;;;;;5029045;28;20940;-65
2022/03/16 00:55:36;;;;;;;115.43;41.77;;;;;;;;;;5029286;28;20418;-64
2022/03/16 00:58:03;;;;;;;114.63;42.17;;;;;;;;;;5029316;28;20492;-65
2022/03/16 01:00:30;;;;;;;116.90;45.53;;;;;;;;;;5027805;28;20451;-65
2022/03/16 01:02:57;;;;;;;119.23;45.80;;;;;;;;;;5042240;28;20449;-65
2022/03/16 01:37:25;;;;;;;120.40;43.73;;;;;;;;;;5028612;28;20930;-65
2022/03/16 01:39:52;;;;;;;104.17;43.23;;;;;;;;;;5028550;28;20439;-65
2022/03/16 01:42:21;;;;;;;101.10;43.50;;;;;;;;;;5028264;28;20431;-65
2022/03/16 01:44:48;;;;;;;100.47;42.57;;;;;;;;;;5038710;28;20447;-65
2022/03/16 01:47:15;;;;;;;113.93;43.13;;;;;;;;;;5030583;28;20490;-65
2022/03/16 01:49:42;;;;;;;114.13;43.40;;;;;;;;;;5046829;28;20445;-64
2022/03/16 01:52:10;;;;;;;117.37;44.77;;;;;;;;;;5048214;28;20934;-64
2022/03/16 01:54:40;;;;;;;108.10;45.43;;;;;;;;;;5047187;28;20749;-65
2022/03/16 01:57:07;;;;;;;109.43;43.87;;;;;;;;;;5047014;28;20445;-65
2022/03/16 01:59:34;;;;;;;113.90;44.07;;;;;;;;;;5030433;28;20445;-65
2022/03/16 02:02:01;;;;;;;138.37;45.93;;;;;;;;;;5063119;28;20779;-65
2022/03/16 02:04:28;;;;;;;125.40;46.40;;;;;;;;;;5046866;28;20437;-65
2022/03/16 02:06:56;;;;;;;117.63;46.33;;;;;;;;;;5049492;28;20429;-65
2022/03/16 02:09:22;;;;;;;103.70;43.63;;;;;;;;;;5030829;28;20446;-65
2022/03/16 02:11:49;;;;;;;103.20;43.90;;;;;;;;;;5030995;28;20486;-65
2022/03/16 02:14:17;;;;;;;98.70;42.47;;;;;;;;;;5032085;28;20434;-64
2022/03/16 02:16:45;;;;;;;113.30;43.57;;;;;;;;;;5032177;28;20451;-65
2022/03/16 02:19:12;;;;;;;99.73;42.67;;;;;;;;;;5032269;28;20440;-65
2022/03/16 02:21:40;;;;;;;109.57;44.93;;;;;;;;;;5032404;28;20435;-65
2022/03/16 02:24:07;;;;;;;101.57;42.20;;;;;;;;;;5031946;28;20440;-65
2022/03/16 02:26:34;;;;;;;99.07;41.87;;;;;;;;;;5031909;28;20431;-65
2022/03/16 02:29:00;;;;;;;103.23;41.87;;;;;;;;;;5031640;28;20465;-65
2022/03/16 02:31:27;;;;;;;92.73;40.17;;;;;;;;;;5031633;28;20844;-65
2022/03/16 02:33:55;;;;;;;109.50;42.20;;;;;;;;;;5032393;28;20443;-65
2022/03/16 02:36:21;;;;;;;85.60;40.73;;;;;;;;;;5031670;28;20803;-65
2022/03/16 02:38:48;;;;;;;93.67;40.57;;;;;;;;;;5031771;28;20430;-65
2022/03/16 02:41:15;;;;;;;90.70;40.70;;;;;;;;;;5031681;28;20472;-65
2022/03/16 02:43:42;;;;;;;92.10;39.47;;;;;;;;;;5031435;28;20432;-65
2022/03/16 02:46:08;;;;;;;94.43;41.87;;;;;;;;;;5047701;28;20441;-65
2022/03/16 02:48:35;;;;;;;97.70;40.70;;;;;;;;;;5051878;28;20447;-65
2022/03/16 02:51:03;;;;;;;91.30;41.13;;;;;;;;;;5051221;28;20824;-65
2022/03/16 02:53:29;;;;;;;87.03;40.80;;;;;;;;;;5051251;28;20520;-65
2022/03/16 02:55:56;;;;;;;90.53;40.13;;;;;;;;;;5051364;28;20422;-65
2022/03/16 02:58:23;;;;;;;88.77;42.03;;;;;;;;;;5051243;28;20436;-64
2022/03/16 03:00:50;;;;;;;91.37;41.00;;;;;;;;;;5051375;28;20428;-65
2022/03/16 03:03:17;;;;;;;88.40;40.80;;;;;;;;;;5037868;28;20463;-65
2022/03/16 03:05:44;;;;;;;87.97;42.13;;;;;;;;;;5030950;28;20989;-65
2022/03/16 03:08:10;;;;;;;88.73;38.83;;;;;;;;;;5043390;28;20435;-65
2022/03/16 03:10:38;;;;;;;88.27;40.80;;;;;;;;;;5050889;28;20457;-65
2022/03/16 03:13:04;;;;;;;88.07;39.87;;;;;;;;;;5051292;28;20493;-65
2022/03/16 03:15:31;;;;;;;90.43;40.27;;;;;;;;;;5051146;28;20436;-65
2022/03/16 03:17:58;;;;;;;92.03;40.60;;;;;;;;;;5051053;28;20444;-65
2022/03/16 03:20:24;;;;;;;93.20;41.90;;;;;;;;;;5050884;28;20453;-65
2022/03/16 03:22:51;;;;;;;86.20;40.37;;;;;;;;;;5043078;28;20453;-65
2022/03/16 03:25:18;;;;;;;88.53;39.77;;;;;;;;;;5030931;28;20451;-65
2022/03/16 03:27:44;;;;;;;89.27;39.97;;;;;;;;;;5033412;28;20451;-65
2022/03/16 03:30:11;;;;;;;96.47;40.87;;;;;;;;;;5033013;28;20431;-64
2022/03/16 03:32:38;;;;;;;99.13;41.80;;;;;;;;;;5030420;28;20525;-65
2022/03/16 03:35:06;;;;;;;95.60;43.10;;;;;;;;;;5030565;28;20419;-65
2022/03/16 03:37:34;;;;;;;92.67;42.23;;;;;;;;;;5030926;28;20431;-65
2022/03/16 03:40:00;;;;;;;92.73;41.40;;;;;;;;;;5030470;28;20454;-64
2022/03/16 03:42:27;;;;;;;96.37;40.63;;;;;;;;;;5030483;28;20453;-64
2022/03/16 03:44:54;;;;;;;91.40;41.20;;;;;;;;;;5030549;28;20424;-64
2022/03/16 03:47:20;;;;;;;83.63;39.20;;;;;;;;;;5029622;28;20458;-66
2022/03/16 03:49:47;;;;;;;84.30;37.50;;;;;;;;;;5031423;28;20802;-64
2022/03/16 03:52:14;;;;;;;88.03;39.90;;;;;;;;;;5030279;28;20473;-64
2022/03/16 03:54:40;;;;;;;90.93;39.17;;;;;;;;;;5030423;28;20425;-64
2022/03/16 03:57:07;;;;;;;87.97;37.63;;;;;;;;;;5030329;28;20480;-64
2022/03/16 03:59:34;;;;;;;88.53;38.97;;;;;;;;;;5030471;28;20436;-64
2022/03/16 04:02:00;;;;;;;92.17;40.07;;;;;;;;;;5029800;28;20495;-64
2022/03/16 04:04:27;;;;;;;96.43;40.57;;;;;;;;;;5030126;28;20436;-64
2022/03/16 04:06:54;;;;;;;98.77;39.20;;;;;;;;;;5032341;28;20475;-64
2022/03/16 04:09:21;;;;;;;88.80;39.30;;;;;;;;;;5049901;28;20435;-64
2022/03/16 04:11:48;;;;;;;123.60;40.63;;;;;;;;;;5049886;28;20487;-64
2022/03/16 04:14:16;;;;;;;95.77;39.53;;;;;;;;;;5049838;28;20422;-64
2022/03/16 04:16:42;;;;;;;104.07;41.37;;;;;;;;;;5048702;28;20458;-64
2022/03/16 04:19:10;;;;;;;125.43;40.07;;;;;;;;;;5049960;28;20423;-64
2022/03/16 04:21:36;;;;;;;106.37;40.40;;;;;;;;;;5050027;28;20834;-64
2022/03/16 04:24:03;;;;;;;93.80;38.60;;;;;;;;;;5049540;28;20969;-64
2022/03/16 04:26:30;;;;;;;93.30;40.80;;;;;;;;;;5048499;28;20559;-64
2022/03/16 04:28:57;;;;;;;92.40;40.33;;;;;;;;;;5048966;28;20421;-64
2022/03/16 04:31:24;;;;;;;100.17;40.37;;;;;;;;;;5048129;28;20495;-65
2022/03/16 04:33:51;;;;;;;101.87;40.93;;;;;;;;;;5049803;28;20424;-64
2022/03/16 04:36:17;;;;;;;92.97;40.00;;;;;;;;;;5049443;28;20441;-64
2022/03/16 04:38:44;;;;;;;105.00;41.43;;;;;;;;;;5049326;28;20427;-64
2022/03/16 04:41:11;;;;;;;97.93;40.40;;;;;;;;;;5047962;28;20471;-64
2022/03/16 04:43:37;;;;;;;97.77;40.97;;;;;;;;;;5049274;28;20446;-64
2022/03/16 04:46:04;;;;;;;97.07;40.53;;;;;;;;;;5048167;28;20460;-64
2022/03/16 04:48:31;;;;;;;100.10;39.60;;;;;;;;;;5029426;28;20520;-64
2022/03/16 04:50:58;;;;;;;102.37;39.60;;;;;;;;;;5028997;28;20466;-64
2022/03/16 04:53:24;;;;;;;95.97;40.33;;;;;;;;;;5029083;28;20436;-65
2022/03/16 04:55:51;;;;;;;95.30;38.73;;;;;;;;;;5028122;28;20469;-64
2022/03/16 04:58:18;;;;;;;107.43;41.83;;;;;;;;;;5025830;28;20442;-65
2022/03/16 05:00:46;;;;;;;105.30;40.23;;;;;;;;;;5040713;28;20466;-67
2022/03/16 05:03:14;;;;;;;103.37;42.33;;;;;;;;;;5040759;28;21409;-67
2022/03/16 05:05:44;;;;;;;107.93;41.87;;;;;;;;;;5040599;28;20454;-66
2022/03/16 05:08:10;;;;;;;108.93;42.17;;;;;;;;;;5040573;28;20465;-67
2022/03/16 05:10:37;;;;;;;103.23;42.07;;;;;;;;;;5038732;28;20483;-66
2022/03/16 05:13:06;;;;;;;103.87;42.27;;;;;;;;;;5036857;28;20975;-68
2022/03/16 05:15:33;;;;;;;102.53;40.33;;;;;;;;;;5041035;28;20437;-66
2022/03/16 05:18:00;;;;;;;97.80;39.20;;;;;;;;;;5037557;28;20582;-67
2022/03/16 05:20:27;;;;;;;93.20;39.57;;;;;;;;;;5042936;28;20452;-67
2022/03/16 05:22:54;;;;;;;104.20;41.33;;;;;;;;;;5042621;28;21162;-68
2022/03/16 05:25:21;;;;;;;95.87;37.77;;;;;;;;;;5038181;28;20438;-67
2022/03/16 05:27:48;;;;;;;86.83;38.13;;;;;;;;;;5039069;28;20525;-67
2022/03/16 05:30:15;;;;;;;101.50;40.13;;;;;;;;;;5041835;28;20449;-68
2022/03/16 05:32:42;;;;;;;121.83;41.83;;;;;;;;;;5042777;28;20472;-68
2022/03/16 05:35:10;;;;;;;113.73;39.27;;;;;;;;;;5041351;28;20544;-67
2022/03/16 05:37:36;;;;;;;100.83;40.37;;;;;;;;;;5042653;28;20442;-64
2022/03/16 05:40:04;;;;;;;101.27;40.80;;;;;;;;;;5041081;28;20477;-67
2022/03/16 05:42:31;;;;;;;126.60;41.13;;;;;;;;;;5039579;28;20435;-64
2022/03/16 05:44:58;;;;;;;111.13;41.03;;;;;;;;;;5046549;28;20928;-64
2022/03/16 05:47:25;;;;;;;95.17;39.93;;;;;;;;;;5044910;28;20422;-65
2022/03/16 05:49:53;;;;;;;103.93;40.30;;;;;;;;;;5028422;28;20771;-64
2022/03/16 05:52:21;;;;;;;97.40;38.73;;;;;;;;;;5058073;28;20487;-65
2022/03/16 05:54:49;;;;;;;85.77;38.20;;;;;;;;;;5064983;28;20467;-65
2022/03/16 05:57:16;;;;;;;99.10;39.03;;;;;;;;;;5054195;28;20436;-65
2022/03/16 05:59:43;;;;;;;89.40;37.07;;;;;;;;;;5046082;28;20453;-65
2022/03/16 06:02:10;;;;;;;84.50;37.13;;;;;;;;;;5048085;28;20435;-64
2022/03/16 06:04:37;;;;;;;82.67;36.27;;;;;;;;;;5048149;28;20446;-65
2022/03/16 06:07:04;;;;;;;86.47;34.70;;;;;;;;;;5045230;28;20425;-65
2022/03/16 06:09:31;;;;;;;74.87;34.27;;;;;;;;;;5035851;28;20448;-65
2022/03/16 06:11:58;;;;;;;71.10;34.60;;;;;;;;;;5049875;28;20525;-66
2022/03/16 06:14:25;;;;;;;71.40;33.53;;;;;;;;;;5051079;28;20431;-65
2022/03/16 06:16:52;;;;;;;69.10;32.30;;;;;;;;;;5026848;28;20429;-64
2022/03/16 06:19:20;;;;;;;66.50;33.90;;;;;;;;;;5027642;28;21083;-65
2022/03/16 06:21:47;;;;;;;60.03;31.30;;;;;;;;;;5040726;28;20443;-68
2022/03/16 06:24:14;;;;;;;72.43;38.70;;;;;;;;;;5041855;28;20439;-67
2022/03/16 06:26:41;;;;;;;69.73;34.10;;;;;;;;;;5038884;28;20444;-67
2022/03/16 06:29:08;;;;;;;69.77;34.60;;;;;;;;;;5029972;28;20451;-65
2022/03/16 06:31:35;;;;;;;75.23;35.07;;;;;;;;;;5041844;28;20952;-65
2022/03/16 06:34:01;;;;;;;72.00;33.77;;;;;;;;;;5027989;28;20456;-65
2022/03/16 06:36:28;;;;;;;71.70;35.83;;;;;;;;;;5028024;28;20460;-66
2022/03/16 06:38:55;;;;;;;72.67;34.77;;;;;;;;;;5027946;28;20442;-66
2022/03/16 06:41:24;;;;;;;71.67;34.67;;;;;;;;;;5027729;28;20468;-65
2022/03/16 06:43:51;;;;;;;74.17;34.40;;;;;;;;;;5027881;28;20434;-65
2022/03/16 06:46:18;;;;;;;90.90;36.53;;;;;;;;;;5027714;28;20635;-66
2022/03/16 06:48:44;;;;;;;83.10;36.60;;;;;;;;;;5026855;28;20847;-66
2022/03/16 06:51:11;;;;;;;81.67;35.43;;;;;;;;;;5027904;28;21150;-66
2022/03/16 06:53:38;;;;;;;87.13;36.30;;;;;;;;;;5031389;28;20426;-65
2022/03/16 06:56:04;;;;;;;73.70;32.87;;;;;;;;;;5031535;28;20440;-65
2022/03/16 06:58:31;;;;;;;69.97;33.13;;;;;;;;;;5031394;28;20434;-65
2022/03/16 07:00:58;;;;;;;67.50;31.37;;;;;;;;;;5031502;28;20424;-65
2022/03/16 07:03:25;;;;;;;68.67;30.90;;;;;;;;;;5031562;28;20425;-65
2022/03/16 07:05:51;;;;;;;75.30;31.33;;;;;;;;;;5031420;28;20446;-65
2022/03/16 07:08:18;;;;;;;63.50;31.23;;;;;;;;;;5030712;28;20516;-66
2022/03/16 07:10:45;;;;;;;63.00;30.77;;;;;;;;;;5031387;28;20424;-65
2022/03/16 07:13:12;;;;;;;55.93;28.43;;;;;;;;;;5030985;28;20999;-66
2022/03/16 07:15:39;;;;;;;55.73;27.73;;;;;;;;;;5063240;28;20476;-65
2022/03/16 07:18:06;;;;;;;58.03;28.70;;;;;;;;;;5030757;28;20434;-66
2022/03/16 07:20:32;;;;;;;61.37;29.77;;;;;;;;;;5031066;28;20440;-66
2022/03/16 07:23:06;;;;;;;60.57;28.60;;;;;;;;;;5030828;28;20444;-66
2022/03/16 07:25:35;;;;;;;56.77;28.10;;;;;;;;;;5062464;28;20984;-64
2022/03/16 07:28:02;;;;;;;58.40;28.77;;;;;;;;;;5027063;28;20418;-66
2022/03/16 07:30:28;;;;;;;55.13;27.83;;;;;;;;;;5042302;28;20469;-65
2022/03/16 07:32:55;;;;;;;60.47;28.03;;;;;;;;;;5043444;28;20473;-67
2022/03/16 07:35:26;;;;;;;65.33;28.17;;;;;;;;;;5042228;28;20446;-66
2022/03/16 07:37:54;;;;;;;71.93;30.90;;;;;;;;;;5043778;28;20485;-65
2022/03/16 07:40:21;;;;;;;65.40;30.63;;;;;;;;;;5044426;28;20592;-66
2022/03/16 07:42:48;;;;;;;64.77;30.33;;;;;;;;;;5042252;28;20452;-66
2022/03/16 07:45:15;;;;;;;63.87;30.10;;;;;;;;;;5045050;28;20437;-66
2022/03/16 07:47:47;;;;;;;69.50;31.50;;;;;;;;;;5044997;28;20457;-66
2022/03/16 07:50:14;;;;;;;63.43;30.33;;;;;;;;;;5044846;28;20532;-66
2022/03/16 07:52:41;;;;;;;68.50;31.33;;;;;;;;;;5044790;28;20503;-66
2022/03/16 07:55:08;;;;;;;56.03;30.73;;;;;;;;;;5045598;28;20444;-66
2022/03/16 07:57:36;;;;;;;60.00;29.40;;;;;;;;;;5044199;28;20464;-67
2022/03/16 08:00:06;;;;;;;48.67;27.13;;;;;;;;;;5043467;28;20444;-66
2022/03/16 08:02:33;;;;;;;50.97;28.73;;;;;;;;;;5043614;28;20468;-66
2022/03/16 08:05:21;;;;;;;53.60;29.17;;;;;;;;;;5042895;28;20564;-67
2022/03/16 08:07:48;;;;;;;52.70;28.57;;;;;;;;;;5045737;28;20532;-66
2022/03/16 08:10:32;;;;;;;52.77;28.87;;;;;;;;;;5045323;28;20448;-63
2022/03/16 08:12:59;;;;;;;54.23;27.53;;;;;;;;;;5045230;28;20488;-62
2022/03/16 08:15:28;;;;;;;53.13;28.17;;;;;;;;;;5045356;28;20858;-63
2022/03/16 08:17:54;;;;;;;49.37;27.03;;;;;;;;;;5044535;28;20460;-66
2022/03/16 08:20:21;;;;;;;47.20;26.40;;;;;;;;;;5043515;28;20854;-67
2022/03/16 08:22:51;;;;;;;44.30;25.60;;;;;;;;;;5043383;28;20451;-65
2022/03/16 08:25:19;;;;;;;47.17;26.10;;;;;;;;;;5043126;28;20213;-66
2022/03/16 08:27:48;;;;;;;47.83;26.17;;;;;;;;;;5039118;28;20434;-66
2022/03/16 08:30:16;;;;;;;46.60;25.67;;;;;;;;;;5042887;28;20445;-66
2022/03/16 08:32:42;;;;;;;44.60;25.10;;;;;;;;;;5043260;28;20481;-66
2022/03/16 08:35:10;;;;;;;49.53;26.23;;;;;;;;;;5044664;28;20477;-67
2022/03/16 08:37:37;;;;;;;46.93;25.50;;;;;;;;;;5043362;28;20430;-67
2022/03/16 08:40:04;;;;;;;48.33;27.93;;;;;;;;;;5042612;28;20473;-66
2022/03/16 08:42:31;;;;;;;47.43;28.37;;;;;;;;;;5044641;28;20432;-66
2022/03/16 08:44:58;;;;;;;56.20;30.93;;;;;;;;;;5044164;28;20481;-65
2022/03/16 08:47:25;;;;;;;48.93;27.73;;;;;;;;;;5043677;28;20432;-65
2022/03/16 08:49:55;;;;;;;44.53;25.17;;;;;;;;;;5042417;28;20186;-64
2022/03/16 08:52:22;;;;;;;44.03;25.40;;;;;;;;;;5042971;28;20555;-65
2022/03/16 08:54:50;;;;;;;45.53;25.43;;;;;;;;;;5043846;28;20186;-65
2022/03/16 08:57:17;;;;;;;50.73;27.20;;;;;;;;;;5043807;28;20429;-67
2022/03/16 08:59:45;;;;;;;44.37;25.37;;;;;;;;;;5042264;28;20495;-66
2022/03/16 09:02:12;;;;;;;47.17;26.00;;;;;;;;;;5043693;28;20528;-67
2022/03/16 09:04:39;;;;;;;43.90;26.50;;;;;;;;;;5043556;28;20448;-66
2022/03/16 09:07:06;;;;;;;44.63;25.30;;;;;;;;;;5043786;28;20531;-67
2022/03/16 09:09:40;;;;;;;48.27;26.70;;;;;;;;;;5042417;28;20478;-67
2022/03/16 09:12:10;;;;;;;45.43;24.83;;;;;;;;;;5043371;28;20463;-66
2022/03/16 09:14:38;;;;;;;42.27;24.17;;;;;;;;;;5043346;28;20437;-66
2022/03/16 09:17:05;;;;;;;42.27;25.83;;;;;;;;;;5043528;28;21006;-65
2022/03/16 09:19:33;;;;;;;44.00;25.60;;;;;;;;;;5041802;28;20445;-66
2022/03/16 09:22:00;;;;;;;47.23;25.83;;;;;;;;;;5041836;28;20464;-64
2022/03/16 09:24:27;;;;;;;47.83;27.87;;;;;;;;;;5041350;28;20453;-65
2022/03/16 09:26:59;;;;;;;50.23;28.13;;;;;;;;;;5043623;28;20426;-65
2022/03/16 09:29:28;;;;;;;51.43;28.00;;;;;;;;;;5041939;28;20538;-63
2022/03/16 09:32:02;;;;;;;51.13;29.13;;;;;;;;;;5041142;28;20213;-65
2022/03/16 09:34:29;;;;;;;47.27;27.50;;;;;;;;;;5043585;28;20450;-64
2022/03/16 09:36:57;;;;;;;53.63;27.70;;;;;;;;;;5044325;28;20429;-64
2022/03/16 09:39:24;;;;;;;49.10;27.60;;;;;;;;;;5043019;28;20430;-64
2022/03/16 09:41:52;;;;;;;45.70;26.40;;;;;;;;;;5043494;28;20915;-65
2022/03/16 09:44:18;;;;;;;43.97;25.50;;;;;;;;;;5041888;28;20776;-64
2022/03/16 09:46:46;;;;;;;46.53;25.03;;;;;;;;;;5043892;28;20443;-64
2022/03/16 09:49:14;;;;;;;46.67;24.80;;;;;;;;;;5042556;28;20514;-65
2022/03/16 09:51:41;;;;;;;43.50;24.43;;;;;;;;;;5041438;28;20438;-66
2022/03/16 09:54:08;;;;;;;44.50;25.37;;;;;;;;;;5042462;28;21386;-67
2022/03/16 09:56:34;;;;;;;43.10;25.10;;;;;;;;;;5041879;28;20433;-65
2022/03/16 09:59:02;;;;;;;40.33;24.40;;;;;;;;;;5042515;28;20437;-65
2022/03/16 10:01:29;;;;;;;41.90;24.43;;;;;;;;;;5043223;28;20436;-65
2022/03/16 10:04:06;;;;;;;40.33;23.47;;;;;;;;;;5041792;28;20514;-66
2022/03/16 10:06:37;;;;;;;43.87;24.57;;;;;;;;;;5041131;28;20975;-64
2022/03/16 10:15:00;;;;;;;37.57;21.90;;;;;;;;;;5042274;28;20437;-64
2022/03/16 10:17:46;;;;;;;41.03;24.00;;;;;;;;;;5040325;28;21244;-63
2022/03/16 10:20:19;;;;;;;43.07;26.03;;;;;;;;;;5041871;28;20441;-64
2022/03/16 10:22:59;;;;;;;42.87;23.80;;;;;;;;;;5041970;28;20459;-63
2022/03/16 10:25:26;;;;;;;38.90;22.93;;;;;;;;;;5042690;28;20436;-64
2022/03/16 10:28:10;;;;;;;40.70;24.90;;;;;;;;;;5044339;28;20461;-69
2022/03/16 10:30:38;;;;;;;47.73;27.43;;;;;;;;;;5045919;28;20443;-63
2022/03/16 10:33:05;;;;;;;51.10;29.40;;;;;;;;;;5044534;28;20548;-66
2022/03/16 10:35:33;;;;;;;48.30;28.10;;;;;;;;;;5046468;28;20263;-64
2022/03/16 10:38:07;;;;;;;41.43;25.03;;;;;;;;;;5046360;28;20441;-64
2022/03/16 10:40:34;;;;;;;54.40;30.83;;;;;;;;;;5046187;28;20483;-65
2022/03/16 10:48:55;;;;;;;42.47;24.77;;;;;;;;;;5046465;28;20444;-65
2022/03/16 10:51:22;;;;;;;44.20;26.07;;;;;;;;;;5045300;28;20199;-64
2022/03/16 10:54:02;;;;;;;40.97;25.73;;;;;;;;;;5045499;28;20226;-63
2022/03/16 10:56:30;;;;;;;43.70;27.03;;;;;;;;;;5045936;28;20430;-65
2022/03/16 10:58:57;;;;;;;44.70;26.27;;;;;;;;;;5045391;28;20527;-64
2022/03/16 11:01:27;;;;;;;40.57;24.63;;;;;;;;;;5045222;28;20277;-65
2022/03/16 11:03:55;;;;;;;52.93;29.93;;;;;;;;;;5045326;28;20285;-66
2022/03/16 11:06:22;;;;;;;40.73;26.60;;;;;;;;;;5043905;28;20183;-66
2022/03/16 11:08:54;;;;;;;45.20;26.53;;;;;;;;;;5044691;28;20475;-65
2022/03/16 11:14:08;;;;;;;40.43;24.40;;;;;;;;;;5058748;28;21004;-66
2022/03/16 11:16:35;;;;;;;43.07;26.83;;;;;;;;;;5045610;28;20175;-67
2022/03/16 11:19:04;;;;;;;48.13;29.40;;;;;;;;;;5043800;28;20282;-64
2022/03/16 11:21:45;;;;;;;46.33;27.13;;;;;;;;;;5044042;28;20213;-64
2022/03/16 11:24:16;;;;;;;72.97;35.20;;;;;;;;;;5043919;28;20245;-64
2022/03/16 11:26:49;;;;;;;36.93;22.93;;;;;;;;;;5043825;28;20210;-64
2022/03/16 11:29:32;;;;;;;36.43;21.53;;;;;;;;;;5045067;28;20230;-66
2022/03/16 11:32:08;;;;;;;41.07;23.73;;;;;;;;;;5045127;28;20202;-65
2022/03/16 11:34:36;;;;;;;57.00;28.70;;;;;;;;;;5044060;28;20257;-64
2022/03/16 11:37:10;;;;;;;39.73;24.43;;;;;;;;;;5045322;28;20197;-65
2022/03/16 11:39:42;;;;;;;42.67;26.27;;;;;;;;;;5044414;28;20206;-67
2022/03/16 11:42:09;;;;;;;41.00;24.20;;;;;;;;;;5044216;28;20680;-66
2022/03/16 11:44:38;;;;;;;140.17;55.30;;;;;;;;;;5042326;28;20197;-65
2022/03/16 11:47:11;;;;;;;55.17;32.43;;;;;;;;;;5042600;28;20662;-65
2022/03/16 11:49:38;;;;;;;35.57;21.83;;;;;;;;;;5043006;28;20269;-63
2022/03/16 11:52:05;;;;;;;47.43;27.07;;;;;;;;;;5044738;28;20256;-66
2022/03/16 11:54:42;;;;;;;58.13;30.67;;;;;;;;;;5039533;28;20223;-65
2022/03/16 11:57:12;;;;;;;44.27;25.80;;;;;;;;;;5041005;28;20186;-69
2022/03/16 11:59:44;;;;;;;42.77;25.50;;;;;;;;;;5042598;28;20195;-67
2022/03/16 12:02:18;;;;;;;48.77;27.87;;;;;;;;;;5043446;28;20194;-65
2022/03/16 12:04:46;;;;;;;38.07;23.47;;;;;;;;;;5044087;28;20194;-66
2022/03/16 12:07:22;;;;;;;38.40;23.40;;;;;;;;;;5043460;28;20599;-65
2022/03/16 12:09:51;;;;;;;54.10;28.50;;;;;;;;;;5042705;28;20199;-66
2022/03/16 12:15:17;;;;;;;39.67;22.73;;;;;;;;;;5044915;28;20646;-67
2022/03/16 12:17:51;;;;;;;39.63;23.73;;;;;;;;;;5044266;28;20258;-66
2022/03/16 12:20:18;;;;;;;42.93;25.77;;;;;;;;;;5044483;28;20308;-65
2022/03/16 12:22:48;;;;;;;42.53;23.87;;;;;;;;;;5041342;28;20221;-64
2022/03/16 12:25:27;;;;;;;35.57;22.77;;;;;;;;;;5041585;28;20227;-65
2022/03/16 12:30:44;;;;;;;34.83;21.37;;;;;;;;;;5044353;28;20312;-65
2022/03/16 12:33:11;;;;;;;36.77;21.73;;;;;;;;;;5045491;28;20245;-64
2022/03/16 12:35:38;;;;;;;54.40;27.87;;;;;;;;;;5044718;28;20646;-65
2022/03/16 12:38:09;;;;;;;59.77;28.33;;;;;;;;;;5044279;28;20199;-66
2022/03/16 12:42:30;;;;;;;77.67;32.57;;;;;;;;;;5042191;28;20222;-64
2022/03/16 12:43:26;;;;;;;39.83;22.93;;;;;;;;;;5043640;28;20727;-65
2022/03/16 12:45:55;;;;;;;34.83;22.77;;;;;;;;;;5043064;28;20282;-65
2022/03/16 12:48:21;;;;;;;35.87;22.40;;;;;;;;;;5041878;28;20857;-64
2022/03/16 12:50:48;;;;;;;33.10;22.63;;;;;;;;;;5037998;28;20656;-65
2022/03/16 12:53:32;;;;;;;35.73;22.73;;;;;;;;;;5043737;28;20211;-64
2022/03/16 12:55:59;;;;;;;41.40;24.33;;;;;;;;;;5042940;28;20260;-66
2022/03/16 12:58:27;;;;;;;40.90;24.53;;;;;;;;;;5042406;28;20277;-66
2022/03/16 13:00:57;;;;;;;39.33;23.97;;;;;;;;;;5043040;28;20194;-64
2022/03/16 13:03:25;;;;;;;55.17;26.70;;;;;;;;;;5042028;28;20722;-65
2022/03/16 13:05:52;;;;;;;36.00;22.67;;;;;;;;;;5042723;28;20240;-64
2022/03/16 13:08:19;;;;;;;36.33;22.00;;;;;;;;;;5042304;28;21051;-66
2022/03/16 13:13:31;;;;;;;56.07;27.90;;;;;;;;;;5047830;28;20206;-66
2022/03/16 13:16:00;;;;;;;52.87;27.77;;;;;;;;;;5048703;28;20183;-66
2022/03/16 13:18:30;;;;;;;58.97;27.97;;;;;;;;;;5048830;28;20240;-67
2022/03/16 13:20:57;;;;;;;39.37;23.77;;;;;;;;;;5047432;28;20230;-66
2022/03/16 13:23:33;;;;;;;57.13;29.63;;;;;;;;;;5047541;28;20193;-66
2022/03/16 13:26:10;;;;;;;36.17;22.63;;;;;;;;;;5047499;28;20273;-66
2022/03/16 13:28:39;;;;;;;39.97;27.27;;;;;;;;;;5048864;28;20236;-66
2022/03/16 13:31:06;;;;;;;101.07;38.43;;;;;;;;;;5047378;28;20186;-66
2022/03/16 13:33:34;;;;;;;43.43;25.90;;;;;;;;;;5047536;28;20606;-66
2022/03/16 13:36:10;;;;;;;44.73;26.50;;;;;;;;;;5047053;28;20186;-66
2022/03/16 13:38:37;;;;;;;41.73;26.83;;;;;;;;;;5048734;28;20202;-67
2022/03/16 13:41:14;;;;;;;38.07;24.43;;;;;;;;;;5047040;28;20225;-66
2022/03/16 13:43:41;;;;;;;41.70;25.17;;;;;;;;;;5046917;28;20595;-67
2022/03/16 13:46:13;;;;;;;41.93;24.73;;;;;;;;;;5047379;28;20182;-67
2022/03/16 13:48:41;;;;;;;35.10;22.90;;;;;;;;;;5047557;28;20658;-67
2022/03/16 13:51:09;;;;;;;40.53;25.93;;;;;;;;;;5048617;28;20282;-67
2022/03/16 13:53:40;;;;;;;40.60;25.73;;;;;;;;;;5046597;28;20203;-67
2022/03/16 13:56:18;;;;;;;44.07;27.83;;;;;;;;;;5024086;28;21005;-67
2022/03/16 13:58:47;;;;;;;40.13;26.43;;;;;;;;;;5041973;28;20197;-67
2022/03/16 14:01:24;;;;;;;42.00;27.97;;;;;;;;;;5041212;28;20201;-66
2022/03/16 14:04:10;;;;;;;45.63;28.47;;;;;;;;;;5047786;28;20191;-65
2022/03/16 14:06:37;;;;;;;44.87;27.17;;;;;;;;;;5043564;28;20765;-66
2022/03/16 14:09:17;;;;;;;41.93;25.97;;;;;;;;;;5045472;28;20214;-65
2022/03/16 14:11:47;;;;;;;44.90;27.57;;;;;;;;;;5046693;28;20264;-64
2022/03/16 14:14:17;;;;;;;50.40;30.37;;;;;;;;;;5045607;28;20210;-65
2022/03/16 14:16:48;;;;;;;44.57;27.57;;;;;;;;;;5044218;28;20253;-64
2022/03/16 14:19:24;;;;;;;45.43;28.60;;;;;;;;;;5028616;28;20206;-65
2022/03/16 14:21:51;;;;;;;47.63;30.87;;;;;;;;;;5044993;28;20201;-65
2022/03/16 14:24:18;;;;;;;44.73;28.50;;;;;;;;;;5043417;28;20199;-66
2022/03/16 14:26:45;;;;;;;48.53;29.30;;;;;;;;;;5045756;28;20619;-66
2022/03/16 14:29:16;;;;;;;44.67;28.50;;;;;;;;;;5046542;28;20198;-67
2022/03/16 14:31:43;;;;;;;46.33;28.70;;;;;;;;;;5046775;28;20203;-67
2022/03/16 14:34:10;;;;;;;46.07;28.13;;;;;;;;;;5046687;28;20309;-66
2022/03/16 14:36:37;;;;;;;49.53;29.80;;;;;;;;;;5047006;28;20688;-67
2022/03/16 14:39:24;;;;;;;46.20;28.47;;;;;;;;;;5045603;28;20193;-66
2022/03/16 14:41:54;;;;;;;46.83;26.90;;;;;;;;;;5048829;28;20226;-68
2022/03/16 14:44:21;;;;;;;43.23;25.87;;;;;;;;;;5051545;28;20612;-67
2022/03/16 14:46:48;;;;;;;47.10;28.63;;;;;;;;;;5051718;28;20187;-67
2022/03/16 14:49:15;;;;;;;47.00;27.60;;;;;;;;;;5040314;28;20210;-67
2022/03/16 14:51:49;;;;;;;46.47;27.00;;;;;;;;;;5031901;28;20187;-68
2022/03/16 14:54:16;;;;;;;47.43;29.33;;;;;;;;;;5031735;28;20207;-67
2022/03/16 14:56:43;;;;;;;48.67;28.00;;;;;;;;;;5031351;28;20599;-67
2022/03/16 14:59:10;;;;;;;46.87;28.03;;;;;;;;;;5031773;28;20184;-67
2022/03/16 15:01:36;;;;;;;50.00;29.80;;;;;;;;;;5031250;28;20199;-67
2022/03/16 15:04:03;;;;;;;46.97;27.17;;;;;;;;;;5030647;28;20191;-68
2022/03/16 15:06:31;;;;;;;45.57;26.80;;;;;;;;;;5030234;28;20257;-68
2022/03/16 15:08:57;;;;;;;48.40;28.03;;;;;;;;;;5048471;28;20234;-67
2022/03/16 15:11:41;;;;;;;44.13;26.93;;;;;;;;;;5050988;28;20174;-67
2022/03/16 15:14:08;;;;;;;43.30;26.43;;;;;;;;;;5050676;28;20210;-67
2022/03/16 15:16:35;;;;;;;44.77;25.70;;;;;;;;;;5049825;28;20197;-67